Time;durP1;ratioP1;P1;durP2;ratioP2;P2;SDS_P1;SDS_P2;PMS_P1;PMS_P2;Temp;Humidity;BMP_temperature;BMP_pressure;BME280_temperature;BME280_humidity;BME280_pressure;Samples;Min_cycle;Max_cycle;Signal;HPM_P1;HPM_P2
2023/04/17 00:01:20;;;;;;;29.83;17.85;;;;;;;10.18;100.00;100695.34;5073617;28;20063;-76
2023/04/17 00:03:47;;;;;;;32.97;18.23;;;;;;;10.12;100.00;100692.34;5075809;28;20028;-76
2023/04/17 00:06:15;;;;;;;31.92;18.52;;;;;;;10.08;100.00;100694.59;5075880;28;20020;-76
2023/04/17 00:08:42;;;;;;;31.10;19.48;;;;;;;10.03;100.00;100692.38;5075421;28;20016;-76
2023/04/17 00:11:08;;;;;;;32.13;18.85;;;;;;;10.06;100.00;100689.34;5074372;28;20050;-76
2023/04/17 00:13:34;;;;;;;32.67;18.85;;;;;;;10.03;100.00;100690.31;5076237;28;20111;-75
2023/04/17 00:15:59;;;;;;;30.30;18.75;;;;;;;10.02;100.00;100688.72;5075390;28;20055;-75
2023/04/17 00:18:27;;;;;;;31.45;19.50;;;;;;;10.02;100.00;100679.38;5074101;28;20060;-75
2023/04/17 00:20:55;;;;;;;32.72;18.63;;;;;;;10.04;100.00;100691.88;5075360;28;20073;-76
2023/04/17 00:23:20;;;;;;;35.67;18.50;;;;;;;10.05;100.00;100681.25;5075325;28;20062;-76
2023/04/17 00:25:46;;;;;;;33.30;20.02;;;;;;;10.03;100.00;100690.31;5075572;28;20597;-76
2023/04/17 00:28:12;;;;;;;29.15;18.50;;;;;;;9.98;100.00;100695.88;5075531;28;20021;-76
2023/04/17 00:30:38;;;;;;;34.03;19.35;;;;;;;9.95;100.00;100691.09;5075267;28;20036;-78
2023/04/17 00:33:04;;;;;;;36.75;19.75;;;;;;;9.93;100.00;100694.47;5073989;28;20020;-76
2023/04/17 00:35:29;;;;;;;36.63;20.33;;;;;;;9.90;100.00;100694.59;5075324;28;20147;-76
2023/04/17 00:37:58;;;;;;;32.70;19.75;;;;;;;9.90;100.00;100694.59;5075047;28;20469;-76
2023/04/17 00:40:23;;;;;;;31.98;18.88;;;;;;;9.89;100.00;100693.81;5074894;28;20039;-76
2023/04/17 00:42:52;;;;;;;34.50;19.40;;;;;;;9.87;100.00;100690.66;5073716;28;20453;-76
2023/04/17 00:45:20;;;;;;;34.70;19.98;;;;;;;9.79;100.00;100689.38;5074730;28;20054;-75
2023/04/17 00:48:01;;;;;;;32.42;19.95;;;;;;;9.64;100.00;100699.88;5073576;28;20032;-76
2023/04/17 00:50:28;;;;;;;31.90;18.88;;;;;;;9.55;100.00;100697.78;5074804;28;20024;-76
2023/04/17 00:52:55;;;;;;;32.85;19.77;;;;;;;9.51;100.00;100693.50;5056691;28;20393;-76
2023/04/17 00:55:21;;;;;;;36.47;19.20;;;;;;;9.40;100.00;100701.75;5057055;28;20039;-75
2023/04/17 00:57:49;;;;;;;33.97;19.77;;;;;;;9.31;100.00;100698.91;5057007;28;20040;-76
2023/04/17 01:00:16;;;;;;;35.65;20.48;;;;;;;9.21;100.00;100698.91;5073355;28;20400;-75
2023/04/17 01:02:44;;;;;;;38.85;21.70;;;;;;;9.12;100.00;100704.59;5073647;28;20024;-76
2023/04/17 01:05:18;;;;;;;35.08;19.50;;;;;;;9.02;100.00;100707.91;5074096;28;20565;-75
2023/04/17 01:07:44;;;;;;;37.78;21.00;;;;;;;8.99;100.00;100721.06;5074822;28;20401;-76
2023/04/17 01:10:10;;;;;;;39.72;21.85;;;;;;;8.97;100.00;100715.03;5073892;28;20064;-76
2023/04/17 01:12:39;;;;;;;39.67;22.10;;;;;;;8.94;100.00;100715.97;5074317;28;20063;-76
2023/04/17 01:15:06;;;;;;;39.58;21.67;;;;;;;8.88;100.00;100717.06;5073006;28;20020;-75
2023/04/17 01:17:31;;;;;;;44.55;22.27;;;;;;;8.85;100.00;100721.66;5073710;28;20051;-74
2023/04/17 01:19:57;;;;;;;40.72;22.60;;;;;;;8.83;100.00;100721.31;5038710;28;20041;-75
2023/04/17 01:22:22;;;;;;;41.65;22.33;;;;;;;8.83;100.00;100727.03;5073590;28;20020;-75
2023/04/17 01:24:53;;;;;;;39.97;22.52;;;;;;;8.81;100.00;100721.78;5077489;28;20044;-74
2023/04/17 01:27:21;;;;;;;42.45;23.05;;;;;;;8.79;100.00;100715.00;5072630;28;20120;-75
2023/04/17 01:29:47;;;;;;;45.22;22.42;;;;;;;8.79;100.00;100720.69;5073049;28;20082;-75
2023/04/17 01:32:18;;;;;;;45.33;24.05;;;;;;;8.76;100.00;100710.22;5072575;28;20051;-74
2023/04/17 01:34:50;;;;;;;46.63;22.85;;;;;;;8.72;100.00;100707.53;5073174;28;20131;-74
2023/04/17 01:37:16;;;;;;;45.88;24.60;;;;;;;8.69;100.00;100719.06;5072483;28;20457;-75
2023/04/17 01:39:44;;;;;;;44.38;23.98;;;;;;;8.66;100.00;100717.94;5072527;28;20027;-75
2023/04/17 01:42:22;;;;;;;46.50;24.15;;;;;;;8.58;100.00;100713.00;5072667;28;20036;-75
2023/04/17 01:44:48;;;;;;;41.67;24.08;;;;;;;8.53;100.00;100719.31;5072324;28;20032;-75
2023/04/17 01:47:13;;;;;;;45.33;23.70;;;;;;;8.54;100.00;100718.06;5072330;28;20477;-75
2023/04/17 01:49:39;;;;;;;44.92;22.88;;;;;;;8.51;100.00;100724.72;5072518;28;20028;-75
2023/04/17 01:52:05;;;;;;;49.22;25.08;;;;;;;8.47;100.00;100721.97;5073174;28;20044;-76
2023/04/17 01:54:32;;;;;;;49.25;26.23;;;;;;;8.42;100.00;100716.91;5073892;28;20117;-75
2023/04/17 01:56:57;;;;;;;46.75;23.27;;;;;;;8.39;100.00;100721.50;5073500;28;20041;-74
2023/04/17 01:59:24;;;;;;;45.20;22.67;;;;;;;8.37;100.00;100718.31;5073406;28;20035;-75
2023/04/17 02:01:50;;;;;;;42.78;23.10;;;;;;;8.30;100.00;100714.97;5072403;28;20473;-75
2023/04/17 02:04:16;;;;;;;46.78;23.88;;;;;;;8.30;100.00;100721.44;5055836;28;20120;-76
2023/04/17 02:06:42;;;;;;;45.17;23.50;;;;;;;8.29;100.00;100724.75;5081873;28;20043;-75
2023/04/17 02:09:10;;;;;;;43.75;23.52;;;;;;;8.27;100.00;100733.75;5096183;28;20012;-75
2023/04/17 02:11:42;;;;;;;47.22;25.50;;;;;;;8.24;100.00;100716.81;5094361;28;20015;-74
2023/04/17 02:14:08;;;;;;;49.05;24.00;;;;;;;8.21;100.00;100732.00;5093057;28;20082;-75
2023/04/17 02:16:34;;;;;;;47.90;24.13;;;;;;;8.20;100.00;100733.25;5074141;28;20028;-75
2023/04/17 02:19:00;;;;;;;51.40;25.98;;;;;;;8.18;100.00;100736.56;5073715;28;20040;-75
2023/04/17 02:21:27;;;;;;;44.35;24.88;;;;;;;8.18;100.00;100742.25;5073787;28;20029;-75
2023/04/17 02:23:52;;;;;;;46.85;24.08;;;;;;;8.17;100.00;100737.81;5072866;28;20036;-74
2023/04/17 02:26:20;;;;;;;51.17;24.63;;;;;;;8.12;100.00;100732.69;5072432;28;20099;-75
2023/04/17 02:28:46;;;;;;;44.83;24.52;;;;;;;8.19;100.00;100743.03;5073012;28;20553;-74
2023/04/17 02:31:12;;;;;;;45.80;23.65;;;;;;;8.21;100.00;100749.84;5072895;28;20039;-75
2023/04/17 02:33:37;;;;;;;53.47;25.45;;;;;;;8.19;100.00;100738.16;5073410;28;20373;-75
2023/04/17 02:36:08;;;;;;;51.25;25.83;;;;;;;8.26;100.00;100746.41;5072894;28;20029;-74
2023/04/17 02:38:36;;;;;;;49.53;24.67;;;;;;;8.28;100.00;100743.09;5072032;28;20021;-75
2023/04/17 02:41:04;;;;;;;52.60;24.25;;;;;;;8.29;100.00;100745.47;5072727;28;20017;-76
2023/04/17 02:43:29;;;;;;;51.83;25.50;;;;;;;8.37;100.00;100741.09;5071594;28;20020;-75
2023/04/17 02:45:55;;;;;;;46.67;23.83;;;;;;;8.47;100.00;100752.50;5072715;28;20085;-75
2023/04/17 02:48:22;;;;;;;52.10;26.42;;;;;;;8.54;100.00;100738.81;5073121;28;20381;-76
2023/04/17 02:50:49;;;;;;;52.25;26.48;;;;;;;8.59;100.00;100738.19;5072327;28;20037;-75
2023/04/17 02:53:14;;;;;;;49.28;24.15;;;;;;;8.69;100.00;100744.72;5071409;28;20033;-75
2023/04/17 02:55:54;;;;;;;49.97;24.90;;;;;;;8.74;100.00;100741.25;5071088;28;20039;-75
2023/04/17 02:58:20;;;;;;;47.22;24.33;;;;;;;8.81;100.00;100750.28;5072960;28;20028;-75
2023/04/17 03:00:45;;;;;;;48.08;27.17;;;;;;;8.88;100.00;100746.34;5072675;28;20032;-76
2023/04/17 03:03:12;;;;;;;45.90;25.23;;;;;;;8.91;100.00;100751.09;5072805;28;20032;-76
2023/04/17 03:05:40;;;;;;;42.80;23.75;;;;;;;8.93;100.00;100750.63;5072632;28;20024;-75
2023/04/17 03:08:06;;;;;;;41.88;23.45;;;;;;;8.93;100.00;100751.44;5072676;28;20492;-75
2023/04/17 03:10:32;;;;;;;42.30;22.80;;;;;;;8.86;100.00;100750.91;5072800;28;20044;-75
2023/04/17 03:13:12;;;;;;;40.95;22.95;;;;;;;8.87;100.00;100753.31;5071846;28;20111;-75
2023/04/17 03:15:39;;;;;;;47.95;23.67;;;;;;;8.88;100.00;100754.91;5072971;28;20047;-74
2023/04/17 03:18:04;;;;;;;43.35;24.40;;;;;;;8.87;100.00;100759.00;5071670;28;20028;-74
2023/04/17 03:20:31;;;;;;;41.88;24.65;;;;;;;8.92;100.00;100760.44;5072764;28;20020;-76
2023/04/17 03:22:56;;;;;;;45.15;24.75;;;;;;;8.92;100.00;100755.53;5072044;28;20032;-75
2023/04/17 03:25:23;;;;;;;42.35;24.25;;;;;;;8.90;100.00;100760.13;5076666;28;20043;-75
2023/04/17 03:27:48;;;;;;;44.10;25.45;;;;;;;8.82;100.00;100763.28;5076479;28;20031;-76
2023/04/17 03:30:14;;;;;;;44.47;24.80;;;;;;;8.78;100.00;100756.13;5076458;28;20032;-76
2023/04/17 03:32:41;;;;;;;42.65;23.95;;;;;;;8.72;100.00;100760.84;5076191;28;20040;-76
2023/04/17 03:35:22;;;;;;;43.03;24.52;;;;;;;8.68;100.00;100758.16;5074890;28;20043;-76
2023/04/17 03:37:48;;;;;;;48.92;25.17;;;;;;;8.66;100.00;100759.88;5076364;28;20017;-77
2023/04/17 03:40:14;;;;;;;40.65;23.30;;;;;;;8.60;100.00;100762.56;5075955;28;20115;-75
2023/04/17 03:42:40;;;;;;;44.03;25.13;;;;;;;8.63;100.00;100766.53;5075785;28;20170;-75
2023/04/17 03:45:07;;;;;;;49.00;26.70;;;;;;;8.64;100.00;100770.97;5075974;28;20564;-75
2023/04/17 03:47:34;;;;;;;49.47;26.88;;;;;;;8.65;100.00;100773.34;5076050;28;20052;-75
2023/04/17 03:49:59;;;;;;;53.75;26.40;;;;;;;8.69;100.00;100776.84;5075718;28;20047;-75
2023/04/17 03:52:26;;;;;;;48.55;27.15;;;;;;;8.71;100.00;100780.00;5075503;28;20052;-75
2023/04/17 03:54:52;;;;;;;47.60;27.63;;;;;;;8.74;100.00;100779.09;5075911;28;20036;-73
2023/04/17 03:57:18;;;;;;;48.95;27.63;;;;;;;8.78;100.00;100776.88;5075928;28;20033;-75
2023/04/17 03:59:45;;;;;;;48.35;26.30;;;;;;;8.83;100.00;100781.16;5074295;28;20068;-75
2023/04/17 04:02:12;;;;;;;43.28;26.85;;;;;;;8.85;100.00;100784.34;5074319;28;20027;-75
2023/04/17 04:04:39;;;;;;;47.45;25.60;;;;;;;8.88;100.00;100776.91;5075591;28;20024;-76
2023/04/17 04:07:07;;;;;;;53.40;27.52;;;;;;;8.88;100.00;100788.31;5075807;28;20464;-76
2023/04/17 04:09:35;;;;;;;45.92;26.55;;;;;;;8.88;100.00;100785.47;5075367;28;20044;-75
2023/04/17 04:12:07;;;;;;;48.20;27.38;;;;;;;8.92;100.00;100795.44;5075663;28;20052;-75
2023/04/17 04:14:33;;;;;;;52.65;28.75;;;;;;;8.94;100.00;100789.28;5075523;28;20082;-76
2023/04/17 04:17:02;;;;;;;45.78;27.60;;;;;;;8.95;100.00;100785.19;5075051;28;20383;-76
2023/04/17 04:19:29;;;;;;;48.78;27.70;;;;;;;8.95;100.00;100788.81;5075601;28;20021;-76
2023/04/17 04:21:56;;;;;;;56.78;30.40;;;;;;;8.92;100.00;100781.19;5075037;28;20024;-77
2023/04/17 04:24:24;;;;;;;53.88;29.23;;;;;;;8.88;100.00;100777.69;5075479;28;20024;-77
2023/04/17 04:27:10;;;;;;;55.63;31.45;;;;;;;8.82;100.00;100779.56;5075527;28;20028;-77
2023/04/17 04:29:37;;;;;;;54.47;30.23;;;;;;;8.80;100.00;100782.88;5074920;28;20338;-77
2023/04/17 04:32:04;;;;;;;51.78;29.55;;;;;;;8.80;100.00;100788.59;5075424;28;20020;-77
2023/04/17 04:34:29;;;;;;;50.28;26.40;;;;;;;8.80;100.00;100787.81;5057189;28;20033;-78
2023/04/17 04:36:56;;;;;;;50.65;27.25;;;;;;;8.81;100.00;100793.03;5073071;28;20039;-76
2023/04/17 04:39:22;;;;;;;46.15;25.60;;;;;;;8.81;100.00;100792.22;5056901;28;20033;-76
2023/04/17 04:41:53;;;;;;;51.55;29.17;;;;;;;8.82;100.00;100799.53;5073510;28;20112;-77
2023/04/17 04:44:19;;;;;;;45.20;25.03;;;;;;;8.74;100.00;100781.94;5054352;28;20545;-75
2023/04/17 04:46:46;;;;;;;45.50;26.55;;;;;;;8.83;100.00;100801.91;5054420;28;20358;-76
2023/04/17 04:49:12;;;;;;;45.08;24.50;;;;;;;8.81;100.00;100795.88;5020483;28;20465;-77
2023/04/17 04:51:38;;;;;;;44.35;24.38;;;;;;;8.87;100.00;100810.31;5053039;28;20085;-77
2023/04/17 04:54:04;;;;;;;47.50;24.35;;;;;;;8.87;100.00;100801.75;5020981;28;20059;-80
2023/04/17 04:56:30;;;;;;;40.67;24.88;;;;;;;8.83;100.00;100803.97;5042750;28;20037;-78
2023/04/17 04:58:55;;;;;;;54.90;28.00;;;;;;;8.88;100.00;100803.34;5057140;28;20055;-79
2023/04/17 05:01:31;;;;;;;47.63;25.08;;;;;;;8.93;100.00;100801.94;5056755;28;20521;-78
2023/04/17 05:03:58;;;;;;;40.63;23.95;;;;;;;8.99;100.00;100797.22;5055092;28;20036;-77
2023/04/17 05:06:25;;;;;;;45.28;26.48;;;;;;;9.07;100.00;100805.00;5055950;28;20024;-78
2023/04/17 05:08:51;;;;;;;47.25;26.42;;;;;;;9.15;100.00;100809.13;5055258;28;20074;-77
2023/04/17 05:11:18;;;;;;;41.55;24.13;;;;;;;9.25;100.00;100816.44;5053304;28;20021;-77
2023/04/17 05:13:43;;;;;;;42.30;25.50;;;;;;;9.29;100.00;100819.16;5054299;28;20036;-76
2023/04/17 05:16:08;;;;;;;44.85;24.80;;;;;;;9.36;100.00;100818.84;5053370;28;20029;-80
2023/04/17 05:18:35;;;;;;;43.65;25.17;;;;;;;9.45;100.00;100816.00;5054601;28;20111;-79
2023/04/17 05:21:01;;;;;;;39.78;24.27;;;;;;;9.53;100.00;100817.31;5054176;28;20492;-78
2023/04/17 05:23:32;;;;;;;41.38;23.98;;;;;;;9.64;100.00;100822.56;5053491;28;20025;-78
2023/04/17 05:25:57;;;;;;;44.72;25.60;;;;;;;9.76;100.00;100824.50;5051359;28;20037;-79
2023/04/17 05:28:23;;;;;;;44.45;26.13;;;;;;;9.77;100.00;100813.88;5052998;28;20112;-79
2023/04/17 05:30:51;;;;;;;44.97;25.58;;;;;;;9.95;100.00;100826.06;5056243;28;20041;-81
2023/04/17 05:33:22;;;;;;;46.25;25.42;;;;;;;10.07;100.00;100825.13;5058760;28;20397;-80
2023/04/17 05:35:48;;;;;;;43.53;25.23;;;;;;;10.18;100.00;100835.28;5054807;28;20363;-80
2023/04/17 05:38:14;;;;;;;48.40;26.60;;;;;;;10.33;100.00;100827.66;5056324;28;20115;-82
2023/04/17 05:40:40;;;;;;;43.05;24.27;;;;;;;10.41;100.00;100826.03;5053271;28;20051;-81
2023/04/17 05:43:07;;;;;;;34.95;21.08;;;;;;;10.59;100.00;100833.75;5054763;28;20159;-79
2023/04/17 05:45:40;;;;;;;38.95;23.17;;;;;;;10.79;100.00;100834.03;5053027;28;20094;-81
2023/04/17 05:48:05;;;;;;;40.17;21.75;;;;;;;10.97;100.00;100831.88;5054720;28;20037;-81
2023/04/17 05:50:32;;;;;;;36.90;21.10;;;;;;;11.11;100.00;100827.59;5055259;28;20358;-82
2023/04/17 05:53:00;;;;;;;36.22;20.48;;;;;;;11.26;100.00;100831.31;5055503;28;20057;-81
2023/04/17 05:55:27;;;;;;;31.52;19.80;;;;;;;11.38;100.00;100827.44;5055434;28;20347;-82
2023/04/17 05:57:52;;;;;;;31.50;18.75;;;;;;;11.42;100.00;100823.59;5054018;28;20107;-81
2023/04/17 06:00:21;;;;;;;28.23;18.52;;;;;;;11.47;100.00;100834.38;5053656;28;20506;-79
2023/04/17 06:02:47;;;;;;;31.20;18.50;;;;;;;11.39;100.00;100825.34;5052268;28;20024;-80
2023/04/17 06:05:26;;;;;;;28.48;18.10;;;;;;;11.46;100.00;100835.66;5035250;28;20028;-80
2023/04/17 06:07:52;;;;;;;24.88;16.75;;;;;;;11.35;100.00;100837.00;5052741;28;20028;-82
2023/04/17 06:10:19;;;;;;;27.65;17.30;;;;;;;11.45;100.00;100834.88;5054247;28;20081;-82
2023/04/17 06:12:44;;;;;;;31.25;17.38;;;;;;;11.58;100.00;100838.28;5054045;28;20029;-80
2023/04/17 06:15:10;;;;;;;30.02;18.40;;;;;;;11.64;100.00;100830.59;5053387;28;20040;-81
2023/04/17 06:17:37;;;;;;;27.92;16.77;;;;;;;11.71;100.00;100838.03;5063420;28;20071;-80
2023/04/17 06:20:08;;;;;;;29.25;18.38;;;;;;;11.70;100.00;100836.47;5068405;28;20053;-80
2023/04/17 06:22:36;;;;;;;26.23;16.98;;;;;;;11.80;100.00;100840.84;5070700;28;20067;-80
2023/04/17 06:25:03;;;;;;;29.67;16.80;;;;;;;11.83;100.00;100840.63;5070930;28;20041;-81
2023/04/17 06:27:30;;;;;;;25.27;16.60;;;;;;;11.92;100.00;100851.22;5069622;28;20043;-81
2023/04/17 06:29:55;;;;;;;30.33;16.63;;;;;;;12.04;100.00;100846.53;5069690;28;20147;-81
2023/04/17 06:32:22;;;;;;;23.50;16.35;;;;;;;12.10;100.00;100838.84;5069213;28;20371;-80
2023/04/17 06:34:48;;;;;;;22.48;15.35;;;;;;;12.83;100.00;100843.88;5060210;28;20116;-81
2023/04/17 06:37:14;;;;;;;24.95;15.68;;;;;;;14.23;100.00;100851.09;5053983;28;20080;-81
2023/04/17 06:39:40;;;;;;;21.70;14.93;;;;;;;15.61;100.00;100855.78;5056559;28;20041;-81
2023/04/17 06:42:08;;;;;;;24.63;15.10;;;;;;;17.04;100.00;100850.22;5056421;28;20095;-82
2023/04/17 06:44:34;;;;;;;22.77;14.90;;;;;;;18.63;93.88;100838.66;5056197;28;20036;-81
2023/04/17 06:47:03;;;;;;;18.98;14.02;;;;;;;20.64;83.33;100853.97;5057554;28;20068;-81
2023/04/17 06:49:33;;;;;;;20.13;14.85;;;;;;;22.80;71.11;100860.72;5058274;28;20044;-81
2023/04/17 06:51:59;;;;;;;15.63;12.45;;;;;;;24.53;52.09;100874.38;5062276;28;20405;-81
2023/04/17 06:54:25;;;;;;;16.17;12.88;;;;;;;25.96;48.37;100868.56;5065035;28;20033;-81
2023/04/17 06:56:51;;;;;;;16.38;13.35;;;;;;;27.15;41.83;100871.63;5061579;28;20029;-80
2023/04/17 06:59:18;;;;;;;19.20;13.68;;;;;;;28.09;39.36;100868.91;5066909;28;20477;-81
2023/04/17 07:01:44;;;;;;;20.38;13.55;;;;;;;29.25;35.80;100864.66;5072906;28;20106;-80
2023/04/17 07:04:16;;;;;;;16.83;13.68;;;;;;;29.47;31.45;100869.41;5068990;28;20112;-83
2023/04/17 07:06:49;;;;;;;14.70;13.15;;;;;;;30.03;32.80;100870.19;5059093;28;20025;-82
2023/04/17 07:09:15;;;;;;;15.55;13.20;;;;;;;30.45;31.59;100863.13;5057862;28;20413;-79
2023/04/17 07:11:41;;;;;;;13.68;12.27;;;;;;;31.34;30.41;100866.84;5072026;28;20041;-82
2023/04/17 07:14:08;;;;;;;15.07;13.20;;;;;;;32.42;30.42;100867.16;5069286;28;20023;-81
2023/04/17 07:16:34;;;;;;;14.45;12.93;;;;;;;32.94;27.83;100869.16;5064121;28;20563;-81
2023/04/17 07:19:00;;;;;;;14.98;13.35;;;;;;;33.50;27.51;100866.19;5077170;28;20193;-81
2023/04/17 07:21:28;;;;;;;17.45;13.25;;;;;;;34.18;26.09;100872.75;5069982;28;20032;-82
2023/04/17 07:23:54;;;;;;;14.98;13.38;;;;;;;34.10;25.65;100859.59;5062569;28;20047;-78
2023/04/17 07:26:19;;;;;;;14.85;13.27;;;;;;;34.06;24.92;100862.31;5059622;28;20461;-77
2023/04/17 07:28:47;;;;;;;13.63;11.55;;;;;;;33.35;25.57;100860.78;5057086;28;20129;-78
2023/04/17 07:31:12;;;;;;;17.25;10.73;;;;;;;33.67;25.62;100871.75;5072909;28;20131;-78
2023/04/17 07:33:39;;;;;;;13.77;11.02;;;;;;;32.96;24.59;100864.16;5073625;28;20485;-78
2023/04/17 07:36:15;;;;;;;12.77;11.48;;;;;;;32.04;25.85;100868.22;5070961;28;20044;-78
2023/04/17 07:38:43;;;;;;;14.40;11.90;;;;;;;31.98;25.47;100872.94;5056924;28;20396;-78
2023/04/17 07:41:08;;;;;;;12.90;11.63;;;;;;;32.49;26.39;100877.22;5084438;28;20497;-77
2023/04/17 07:43:33;;;;;;;16.80;12.63;;;;;;;32.30;25.46;100874.41;5075421;28;20033;-78
2023/04/17 07:45:59;;;;;;;12.45;10.60;;;;;;;30.79;26.51;100876.78;5075983;28;20032;-79
2023/04/17 07:48:26;;;;;;;13.90;11.15;;;;;;;30.70;26.84;100886.44;5076072;28;20036;-78
2023/04/17 07:50:51;;;;;;;13.57;11.57;;;;;;;30.59;26.63;100890.75;5075596;28;20062;-79
2023/04/17 07:53:17;;;;;;;12.95;11.65;;;;;;;31.63;26.84;100878.53;5075932;28;20040;-78
2023/04/17 07:55:43;;;;;;;13.32;11.77;;;;;;;32.68;24.74;100880.06;5074652;28;20052;-79
2023/04/17 07:58:10;;;;;;;13.23;11.93;;;;;;;31.66;26.03;100871.34;5074856;28;20059;-78
2023/04/17 08:00:44;;;;;;;11.90;10.68;;;;;;;29.72;27.22;100883.94;5075677;28;20485;-77
2023/04/17 08:03:13;;;;;;;12.43;11.13;;;;;;;27.54;29.22;100880.94;5074520;28;20532;-77
2023/04/17 08:05:39;;;;;;;14.10;11.60;;;;;;;27.10;31.34;100874.78;5075889;28;20380;-77
2023/04/17 08:08:06;;;;;;;14.40;12.05;;;;;;;26.51;31.49;100889.94;5074893;28;20538;-76
2023/04/17 08:10:32;;;;;;;15.90;13.32;;;;;;;26.39;32.47;100896.78;5075450;28;20013;-77
2023/04/17 08:12:58;;;;;;;13.27;11.35;;;;;;;26.50;32.61;100908.09;5074503;28;20028;-78
2023/04/17 08:15:25;;;;;;;14.60;12.98;;;;;;;26.86;31.27;100907.78;5057907;28;20464;-77
2023/04/17 08:17:50;;;;;;;14.18;11.50;;;;;;;27.69;31.47;100909.41;5075611;28;20489;-78
2023/04/17 08:20:17;;;;;;;15.75;12.18;;;;;;;28.82;29.88;100899.41;5074354;28;20027;-78
2023/04/17 08:22:52;;;;;;;15.50;12.60;;;;;;;30.04;28.77;100901.25;5075658;28;20381;-77
2023/04/17 08:25:17;;;;;;;13.00;11.68;;;;;;;30.07;27.43;100893.34;5053001;28;20107;-74
2023/04/17 08:27:43;;;;;;;15.63;11.95;;;;;;;28.34;29.89;100896.03;5054752;28;20116;-74
2023/04/17 08:30:10;;;;;;;14.43;12.70;;;;;;;26.77;31.48;100895.28;5054287;28;20043;-76
2023/04/17 08:32:45;;;;;;;15.30;12.88;;;;;;;26.24;32.53;100901.34;5053694;28;20048;-75
2023/04/17 08:35:13;;;;;;;17.13;13.07;;;;;;;26.88;32.76;100890.34;5060719;28;20028;-75
2023/04/17 08:37:48;;;;;;;18.80;12.75;;;;;;;27.43;32.22;100907.84;5075156;28;20539;-77
2023/04/17 08:40:16;;;;;;;13.48;11.27;;;;;;;27.62;31.10;100911.03;5075430;28;20037;-76
2023/04/17 08:42:46;;;;;;;12.85;11.38;;;;;;;27.88;30.94;100913.34;5073734;28;20029;-76
2023/04/17 08:45:12;;;;;;;14.07;11.98;;;;;;;28.23;30.93;100905.38;5073986;28;20356;-76
2023/04/17 08:47:40;;;;;;;13.57;11.68;;;;;;;27.71;30.32;100906.63;5074173;28;20119;-74
2023/04/17 08:50:12;;;;;;;16.27;12.00;;;;;;;27.51;30.78;100912.28;5074265;28;20543;-75
2023/04/17 08:53:01;;;;;;;15.70;11.13;;;;;;;28.35;30.86;100912.28;5073432;28;20405;-73
2023/04/17 08:55:29;;;;;;;14.48;10.95;;;;;;;28.92;30.61;100910.47;5074685;28;20056;-74
2023/04/17 08:58:03;;;;;;;17.17;13.43;;;;;;;28.47;30.11;100914.75;5074682;28;20025;-73
2023/04/17 09:00:31;;;;;;;17.35;14.65;;;;;;;27.82;30.51;100909.88;5074997;28;20028;-73
2023/04/17 09:02:58;;;;;;;14.88;12.13;;;;;;;27.38;30.56;100903.78;5074540;28;20492;-73
2023/04/17 09:05:26;;;;;;;18.58;13.55;;;;;;;26.82;31.79;100914.03;5073384;28;20178;-74
2023/04/17 09:08:10;;;;;;;17.55;13.63;;;;;;;26.54;32.64;100917.25;5074569;28;20052;-73
2023/04/17 09:10:51;;;;;;;18.85;14.02;;;;;;;25.98;32.99;100916.38;5074143;28;20029;-74
2023/04/17 09:13:18;;;;;;;15.77;13.35;;;;;;;24.51;34.82;100928.91;5074593;28;20124;-73
2023/04/17 09:15:46;;;;;;;20.50;15.05;;;;;;;23.95;36.70;100938.47;5073901;28;20107;-72
2023/04/17 09:18:29;;;;;;;20.23;15.80;;;;;;;22.97;38.54;100932.44;5074460;28;20028;-73
2023/04/17 09:20:58;;;;;;;22.00;15.63;;;;;;;22.62;40.00;100936.66;5073113;28;20017;-75
2023/04/17 09:23:28;;;;;;;21.77;15.95;;;;;;;22.35;40.80;100945.41;5073206;28;20039;-72
2023/04/17 09:26:22;;;;;;;20.83;15.30;;;;;;;21.48;42.87;100955.22;5075498;28;20032;-80
2023/04/17 09:29:04;;;;;;;19.65;15.35;;;;;;;20.65;45.66;100960.09;5072735;28;20516;-78
2023/04/17 09:31:31;;;;;;;24.00;18.35;;;;;;;19.80;50.87;100959.47;5073980;28;20491;-77
2023/04/17 09:34:06;;;;;;;23.30;17.15;;;;;;;19.32;54.59;100965.91;5072838;28;20094;-77
2023/04/17 09:36:40;;;;;;;21.65;16.88;;;;;;;19.01;57.85;100963.50;5074252;28;20103;-77
2023/04/17 09:39:19;;;;;;;26.15;17.40;;;;;;;18.67;62.06;100968.69;5072979;28;20048;-78
2023/04/17 09:41:45;;;;;;;24.98;17.73;;;;;;;18.75;64.00;100958.09;5073593;28;20366;-79
2023/04/17 09:44:24;;;;;;;26.17;17.77;;;;;;;18.28;63.76;100940.66;5055590;28;20032;-77
2023/04/17 09:46:52;;;;;;;26.67;17.35;;;;;;;18.06;65.23;100926.28;5072502;28;20036;-78
2023/04/17 09:49:41;;;;;;;27.30;18.20;;;;;;;18.02;68.60;100911.31;5074202;28;20024;-77
2023/04/17 09:52:07;;;;;;;23.63;16.95;;;;;;;18.22;68.31;100913.06;5072665;28;20045;-79
2023/04/17 09:54:36;;;;;;;26.75;18.52;;;;;;;18.22;71.00;100913.88;5072469;28;20040;-77
2023/04/17 09:57:03;;;;;;;32.83;20.00;;;;;;;18.55;73.67;100907.16;5073715;28;20385;-78
2023/04/17 09:59:30;;;;;;;29.23;18.48;;;;;;;19.05;70.35;100909.72;5056785;28;20466;-78
2023/04/17 10:02:06;;;;;;;27.08;18.70;;;;;;;19.23;66.95;100908.28;5056396;28;20028;-78
2023/04/17 10:04:32;;;;;;;27.20;18.83;;;;;;;18.95;65.32;100913.50;5071123;28;20041;-78
2023/04/17 10:06:59;;;;;;;23.63;18.02;;;;;;;18.69;65.85;100911.81;5073594;28;20456;-78
2023/04/17 10:09:26;;;;;;;29.70;19.48;;;;;;;18.41;67.68;100913.28;5072509;28;20119;-79
2023/04/17 10:11:53;;;;;;;31.40;20.15;;;;;;;18.59;68.87;100910.56;5073560;28;20032;-78
2023/04/17 10:14:23;;;;;;;29.95;19.85;;;;;;;18.59;71.31;100909.75;5073436;28;20043;-79
2023/04/17 10:16:49;;;;;;;29.02;20.95;;;;;;;18.27;71.07;100912.28;5071754;28;20025;-78
2023/04/17 10:19:30;;;;;;;28.45;20.38;;;;;;;18.42;72.04;100904.06;5073093;28;20377;-76
2023/04/17 10:22:18;;;;;;;29.45;18.88;;;;;;;19.06;72.70;100901.84;5072843;28;20024;-77
2023/04/17 10:25:13;;;;;;;27.33;18.92;;;;;;;18.94;68.60;100906.91;5073171;28;20041;-77
2023/04/17 10:27:45;;;;;;;23.95;18.10;;;;;;;18.68;67.15;100910.22;5075667;28;20028;-76
2023/04/17 10:30:21;;;;;;;25.80;19.00;;;;;;;18.62;67.81;100903.69;5074047;28;20043;-76
2023/04/17 10:33:18;;;;;;;24.92;18.10;;;;;;;18.15;68.25;100899.94;5072529;28;20025;-76
2023/04/17 10:35:44;;;;;;;25.23;17.35;;;;;;;17.76;72.04;100891.38;5072870;28;20066;-76
2023/04/17 10:38:10;;;;;;;26.27;17.98;;;;;;;17.34;73.99;100891.66;5071346;28;20044;-75
2023/04/17 10:40:36;;;;;;;26.25;17.42;;;;;;;17.37;76.67;100894.31;5072952;28;20067;-75
2023/04/17 10:43:16;;;;;;;27.70;16.55;;;;;;;17.74;77.13;100884.53;5071964;28;20040;-75
2023/04/17 10:46:01;;;;;;;22.98;16.98;;;;;;;18.41;71.80;100895.91;5073135;28;20461;-75
2023/04/17 10:48:46;;;;;;;25.60;16.85;;;;;;;18.57;70.12;100889.25;5072825;28;20028;-76
2023/04/17 10:51:39;;;;;;;28.80;16.92;;;;;;;18.52;68.42;100905.31;5072154;28;20076;-80
2023/04/17 10:54:09;;;;;;;27.10;16.33;;;;;;;18.64;68.57;100888.69;5071046;28;20048;-75
2023/04/17 10:56:45;;;;;;;23.83;16.75;;;;;;;18.47;67.94;100896.69;5072836;28;20467;-80
2023/04/17 10:59:20;;;;;;;22.83;15.07;;;;;;;18.38;66.63;100891.97;5072008;28;20020;-78
2023/04/17 11:01:48;;;;;;;23.88;16.05;;;;;;;18.13;69.11;100896.78;5073318;28;20048;-79
2023/04/17 11:04:35;;;;;;;25.48;15.57;;;;;;;17.98;68.39;100896.31;5073157;28;20028;-79
2023/04/17 11:07:03;;;;;;;23.08;14.82;;;;;;;17.71;69.13;100894.28;5072735;28;20036;-80
2023/04/17 11:09:30;;;;;;;21.55;15.35;;;;;;;17.54;73.24;100884.84;5072404;28;20036;-79
2023/04/17 11:12:00;;;;;;;23.60;15.30;;;;;;;17.31;74.53;100879.06;5072631;28;20115;-79
2023/04/17 11:14:26;;;;;;;26.92;15.85;;;;;;;17.66;74.95;100878.53;5071532;28;20033;-78